createdAt,value
2018-11-10T00:02:20.657Z,81.84
2018-11-10T00:04:52.718Z,81.84
2018-11-10T00:07:24.483Z,81.90
2018-11-10T00:09:55.794Z,81.52
2018-11-10T00:12:27.924Z,81.69
2018-11-10T00:15:00.624Z,81.74
2018-11-10T00:17:32.156Z,81.86
2018-11-10T00:20:04.260Z,81.51
2018-11-10T00:22:36.204Z,81.95
2018-11-10T00:25:09.068Z,81.74
2018-11-10T00:27:40.904Z,81.79
2018-11-10T00:30:14.344Z,81.77
2018-11-10T00:32:46.759Z,81.89
2018-11-10T00:35:18.870Z,81.58
2018-11-10T00:37:51.037Z,81.57
2018-11-10T00:40:23.128Z,81.76
2018-11-10T00:42:55.429Z,81.68
2018-11-10T00:45:27.966Z,81.74
2018-11-10T00:48:00.205Z,81.84
2018-11-10T00:50:32.661Z,82.00
2018-11-10T00:53:04.942Z,81.94
2018-11-10T00:55:36.833Z,82.39
2018-11-10T00:58:08.823Z,82.20
2018-11-10T01:00:40.094Z,82.02
2018-11-10T01:03:12.082Z,82.16
2018-11-10T01:05:43.224Z,81.84
2018-11-10T01:08:15.599Z,81.85
2018-11-10T01:10:47.655Z,81.68
2018-11-10T01:13:20.036Z,81.55
2018-11-10T01:15:52.551Z,81.76
2018-11-10T01:18:24.542Z,81.70
2018-11-10T01:20:56.872Z,81.47
2018-11-10T01:23:28.443Z,81.48
2018-11-10T01:26:00.145Z,81.74
2018-11-10T01:28:32.459Z,81.71
2018-11-10T01:31:04.878Z,81.88
2018-11-10T01:33:36.896Z,81.91
2018-11-10T01:36:08.415Z,82.05
2018-11-10T01:38:40.267Z,82.03
2018-11-10T01:41:12.213Z,82.01
2018-11-10T01:43:43.899Z,81.73
2018-11-10T01:46:15.796Z,81.98
2018-11-10T01:48:47.617Z,81.66
2018-11-10T01:51:19.241Z,81.54
2018-11-10T01:53:51.884Z,81.74
2018-11-10T01:56:24.133Z,81.78
2018-11-10T01:58:56.124Z,81.67
2018-11-10T02:01:28.272Z,81.54
2018-11-10T02:03:59.898Z,81.44
2018-11-10T02:06:31.739Z,81.49
2018-11-10T02:09:04.423Z,81.29
2018-11-10T02:11:40.549Z,81.34
2018-11-10T02:14:12.342Z,81.20
2018-11-10T02:16:43.588Z,81.05
2018-11-10T02:19:15.674Z,81.28
2018-11-10T02:21:48.300Z,81.54
2018-11-10T02:24:20.480Z,81.45
2018-11-10T02:26:52.711Z,81.58
2018-11-10T02:29:24.422Z,81.55
2018-11-10T02:31:56.050Z,82.12
2018-11-10T02:34:28.041Z,81.95
2018-11-10T02:37:00.883Z,81.78
2018-11-10T02:39:32.934Z,81.27
2018-11-10T02:42:04.735Z,81.43
2018-11-10T02:44:36.932Z,81.16
2018-11-10T02:47:08.776Z,81.02
2018-11-10T02:49:41.126Z,81.19
2018-11-10T02:52:12.289Z,80.75
2018-11-10T02:54:44.371Z,80.94
2018-11-10T02:57:16.176Z,81.06
2018-11-10T02:59:47.672Z,80.89
2018-11-10T03:02:19.997Z,80.82
2018-11-10T03:04:51.522Z,80.49
2018-11-10T03:07:23.608Z,80.38
2018-11-10T03:09:56.182Z,80.58
2018-11-10T03:12:27.754Z,80.17
2018-11-10T03:14:59.890Z,80.03
2018-11-10T03:17:32.493Z,79.99
2018-11-10T03:20:04.787Z,79.79
2018-11-10T03:22:37.639Z,79.77
2018-11-10T03:25:09.452Z,79.62
2018-11-10T03:27:40.953Z,79.37
2018-11-10T03:30:14.363Z,79.33
2018-11-10T03:32:47.342Z,79.51
2018-11-10T03:35:19.659Z,79.14
2018-11-10T03:37:51.379Z,78.94
2018-11-10T03:40:23.192Z,78.26
2018-11-10T03:42:55.152Z,78.26
2018-11-10T03:45:27.615Z,77.96
2018-11-10T03:47:59.646Z,78.13
2018-11-10T03:50:31.701Z,77.88
2018-11-10T03:53:03.615Z,77.48
2018-11-10T03:55:35.579Z,77.59
2018-11-10T03:58:07.053Z,77.60
2018-11-10T04:00:38.898Z,77.36
2018-11-10T04:03:10.677Z,77.13
2018-11-10T04:05:42.629Z,77.18
2018-11-10T04:08:15.059Z,77.22
2018-11-10T04:10:46.884Z,77.01
2018-11-10T04:13:19.851Z,76.96
2018-11-10T04:15:51.426Z,77.14
2018-11-10T04:18:23.170Z,76.89
2018-11-10T04:20:55.175Z,76.93
2018-11-10T04:23:27.650Z,76.75
2018-11-10T04:26:00.818Z,76.97
2018-11-10T04:28:32.346Z,76.93
2018-11-10T04:31:04.985Z,76.93
2018-11-10T04:33:37.046Z,77.09
2018-11-10T04:36:08.870Z,77.05
2018-11-10T04:38:40.931Z,77.34
2018-11-10T04:41:13.037Z,77.42
2018-11-10T04:43:44.849Z,77.24
2018-11-10T04:46:17.430Z,77.60
2018-11-10T04:48:48.884Z,77.44
2018-11-10T04:51:21.945Z,77.57
2018-11-10T04:53:53.603Z,77.54
2018-11-10T04:56:26.085Z,78.11
2018-11-10T04:58:58.739Z,77.96
2018-11-10T05:01:31.037Z,78.32
2018-11-10T05:04:02.674Z,78.28
2018-11-10T05:06:34.004Z,78.60
2018-11-10T05:09:05.962Z,78.42
2018-11-10T05:11:37.967Z,78.75
2018-11-10T05:14:14.418Z,78.28
2018-11-10T05:16:45.762Z,79.14
2018-11-10T05:19:17.645Z,79.04
2018-11-10T05:21:49.646Z,79.28
2018-11-10T05:24:21.398Z,79.55
2018-11-10T05:26:52.805Z,79.57
2018-11-10T05:29:24.619Z,80.31
2018-11-10T05:31:56.121Z,80.11
2018-11-10T05:34:28.059Z,80.21
2018-11-10T05:36:59.928Z,80.55
2018-11-10T05:39:32.546Z,80.66
2018-11-10T05:42:04.353Z,80.79
2018-11-10T05:44:35.527Z,80.97
2018-11-10T05:47:07.398Z,80.80
2018-11-10T05:49:39.328Z,81.52
2018-11-10T05:52:11.123Z,81.37
2018-11-10T05:54:42.891Z,81.46
2018-11-10T05:57:14.171Z,81.72
2018-11-10T05:59:45.707Z,81.77
2018-11-10T06:02:17.803Z,82.31
2018-11-10T06:04:49.411Z,82.46
2018-11-10T06:07:21.148Z,82.81
2018-11-10T06:09:52.992Z,82.73
2018-11-10T06:12:24.622Z,82.89
2018-11-10T06:14:56.279Z,82.75
2018-11-10T06:17:28.316Z,82.86
2018-11-10T06:20:00.303Z,83.11
2018-11-10T06:22:31.492Z,82.83
2018-11-10T06:25:03.723Z,82.72
2018-11-10T06:27:35.772Z,82.90
2018-11-10T06:30:08.447Z,82.77
2018-11-10T06:32:40.899Z,83.00
2018-11-10T06:35:12.990Z,83.08
2018-11-10T06:37:44.636Z,82.79
2018-11-10T06:40:16.668Z,82.47
2018-11-10T06:42:48.937Z,82.31
2018-11-10T06:45:21.270Z,82.35
2018-11-10T06:47:53.012Z,82.53
2018-11-10T06:51:27.659Z,82.49
2018-11-10T06:53:59.393Z,82.04
2018-11-10T06:56:30.842Z,81.97
2018-11-10T06:59:02.643Z,82.24
2018-11-10T07:01:34.032Z,81.95
2018-11-10T07:04:06.512Z,82.19
2018-11-10T07:06:37.973Z,81.97
2018-11-10T07:09:13.337Z,82.00
2018-11-10T07:11:44.953Z,81.62
2018-11-10T07:14:16.942Z,82.14
2018-11-10T07:16:50.029Z,82.12
2018-11-10T07:19:21.343Z,81.99
2018-11-10T07:21:52.621Z,82.34
2018-11-10T07:24:24.713Z,82.05
2018-11-10T07:26:55.935Z,81.75
2018-11-10T07:29:27.103Z,81.42
2018-11-10T07:31:59.034Z,81.49
2018-11-10T07:34:31.091Z,81.29
2018-11-10T07:37:02.572Z,81.49
2018-11-10T07:39:34.205Z,81.08
2018-11-10T07:42:05.808Z,81.00
2018-11-10T07:44:37.318Z,80.55
2018-11-10T07:47:08.702Z,80.26
2018-11-10T07:49:40.013Z,80.05
2018-11-10T07:52:11.998Z,79.67
2018-11-10T07:54:43.231Z,79.68
2018-11-10T07:57:14.876Z,79.57
2018-11-10T07:59:46.687Z,79.29
2018-11-10T08:02:18.593Z,79.21
2018-11-10T08:04:49.894Z,78.94
2018-11-10T08:07:22.215Z,78.78
2018-11-10T08:09:53.306Z,78.77
2018-11-10T08:12:24.672Z,78.38
2018-11-10T08:14:55.959Z,77.50
2018-11-10T08:17:27.185Z,77.02
2018-11-10T08:19:58.361Z,77.04
2018-11-10T08:22:29.581Z,76.35
2018-11-10T08:25:02.705Z,75.62
2018-11-10T08:27:35.602Z,75.71
2018-11-10T08:30:07.784Z,74.68
2018-11-10T08:32:39.292Z,74.56
2018-11-10T08:35:11.982Z,73.78
2018-11-10T08:37:43.707Z,73.28
2018-11-10T08:40:16.652Z,72.10
2018-11-10T08:42:47.836Z,72.00
2018-11-10T08:45:19.159Z,71.58
2018-11-10T08:47:50.360Z,70.50
2018-11-10T08:50:21.715Z,70.50
2018-11-10T08:52:53.070Z,70.59
2018-11-10T08:55:24.480Z,69.71
2018-11-10T08:57:55.894Z,69.46
2018-11-10T09:00:27.655Z,68.60
2018-11-10T09:02:58.851Z,68.09
2018-11-10T09:05:30.068Z,67.60
2018-11-10T09:08:02.901Z,67.10
2018-11-10T09:10:34.790Z,66.75
2018-11-10T09:13:06.853Z,66.04
2018-11-10T09:15:38.664Z,66.56
2018-11-10T09:18:10.362Z,65.82
2018-11-10T09:20:42.291Z,65.79
2018-11-10T09:23:13.571Z,65.20
2018-11-10T09:25:45.340Z,65.00
2018-11-10T09:28:16.557Z,65.68
2018-11-10T09:30:48.859Z,64.95
2018-11-10T09:33:20.737Z,64.86
2018-11-10T09:35:53.010Z,64.83
2018-11-10T09:38:24.240Z,64.43
2018-11-10T09:40:55.728Z,63.92
2018-11-10T09:43:27.350Z,64.27
2018-11-10T09:45:59.160Z,63.62
2018-11-10T09:48:32.089Z,62.93
2018-11-10T09:51:04.353Z,63.15
2018-11-10T09:53:36.468Z,62.78
2018-11-10T09:56:07.939Z,62.37
2018-11-10T09:58:40.149Z,62.50
2018-11-10T10:08:11.422Z,61.98
2018-11-10T10:10:44.176Z,61.95
2018-11-10T10:13:16.025Z,62.37
2018-11-10T10:15:48.142Z,62.23
2018-11-10T10:18:20.255Z,62.27
2018-11-10T10:20:52.182Z,61.92
2018-11-10T10:23:23.871Z,62.09
2018-11-10T10:25:55.247Z,62.49
2018-11-10T10:28:26.566Z,62.75
2018-11-10T10:30:59.363Z,62.44
2018-11-10T10:33:30.563Z,62.67
2018-11-10T10:36:02.005Z,62.92
2018-11-10T10:38:33.620Z,62.22
2018-11-10T10:41:05.632Z,62.24
2018-11-10T10:43:38.435Z,62.45
2018-11-10T10:46:09.632Z,61.79
2018-11-10T10:48:42.216Z,61.70
2018-11-10T10:51:13.760Z,61.19
2018-11-10T10:53:45.466Z,61.80
2018-11-10T10:56:18.199Z,61.86
2018-11-10T10:58:49.350Z,62.04
2018-11-10T11:01:25.521Z,61.46
2018-11-10T11:04:05.744Z,61.24
2018-11-10T11:06:37.402Z,61.64
2018-11-10T11:09:10.839Z,61.60
2018-11-10T11:11:42.008Z,61.68
2018-11-10T11:14:14.177Z,61.16
2018-11-10T11:16:46.395Z,60.58
2018-11-10T11:19:18.182Z,61.03
2018-11-10T11:21:50.183Z,60.46
2018-11-10T11:24:21.520Z,60.34
2018-11-10T11:26:53.556Z,59.30
2018-11-10T11:29:25.723Z,59.14
2018-11-10T11:31:56.893Z,59.36
2018-11-10T11:34:29.199Z,59.70
2018-11-10T11:37:00.449Z,59.65
2018-11-10T11:39:32.947Z,59.14
2018-11-10T11:42:05.726Z,59.94
2018-11-10T11:44:37.376Z,59.66
2018-11-10T11:47:09.012Z,60.10
2018-11-10T11:49:40.165Z,59.10
2018-11-10T11:52:12.436Z,59.46
2018-11-10T11:54:44.443Z,58.67
2018-11-10T11:57:15.613Z,59.58
2018-11-10T11:59:47.243Z,59.48
2018-11-10T12:02:20.892Z,58.54
2018-11-10T12:04:53.717Z,58.98
2018-11-10T12:07:25.989Z,58.78
2018-11-10T12:09:58.474Z,59.14
2018-11-10T12:12:29.784Z,59.37
2018-11-10T12:15:01.490Z,59.60
2018-11-10T12:17:34.388Z,58.91
2018-11-10T12:20:07.886Z,59.32
2018-11-10T12:22:39.163Z,59.13
2018-11-10T12:25:12.114Z,58.99
2018-11-10T12:27:57.709Z,58.32
2018-11-10T12:30:29.996Z,58.23
2018-11-10T12:33:03.462Z,58.38
2018-11-10T12:35:35.493Z,57.82
2018-11-10T12:38:08.066Z,58.05
2018-11-10T12:40:42.478Z,57.73
2018-11-10T12:43:17.663Z,57.81
2018-11-10T12:45:48.897Z,57.77
2018-11-10T12:48:20.484Z,57.15
2018-11-10T12:50:53.132Z,56.34
2018-11-10T12:53:24.435Z,56.58
2018-11-10T12:55:55.904Z,56.62
2018-11-10T12:58:27.316Z,56.70
2018-11-10T13:00:58.676Z,56.58
2018-11-10T13:03:30.642Z,56.78
2018-11-10T13:06:04.896Z,57.29
2018-11-10T13:08:37.668Z,56.79
2018-11-10T13:11:11.836Z,57.31
2018-11-10T13:13:43.593Z,57.46
2018-11-10T13:16:17.301Z,57.11
2018-11-10T13:18:55.885Z,57.47
2018-11-10T13:21:32.501Z,57.08
2018-11-10T13:24:09.940Z,58.24
2018-11-10T13:26:41.814Z,57.94
2018-11-10T13:29:16.340Z,57.54
2018-11-10T13:31:47.945Z,57.85
2018-11-10T13:34:22.364Z,57.80
2018-11-10T13:36:55.848Z,58.44
2018-11-10T13:39:31.401Z,58.93
2018-11-10T13:42:05.442Z,58.81
2018-11-10T13:44:40.229Z,58.97
2018-11-10T13:47:14.949Z,59.51
2018-11-10T13:49:52.003Z,60.60
2018-11-10T13:52:24.904Z,60.51
2018-11-10T13:55:03.129Z,60.31
2018-11-10T13:57:36.613Z,58.19
2018-11-10T14:00:17.706Z,57.94
2018-11-10T14:02:49.187Z,57.24
2018-11-10T14:05:23.337Z,57.24
2018-11-10T14:07:54.791Z,56.77
2018-11-10T14:10:26.036Z,57.15
2018-11-10T14:12:57.219Z,56.95
2018-11-10T14:15:31.713Z,56.92
2018-11-10T14:18:04.347Z,56.40
2018-11-10T14:20:36.242Z,56.37
2018-11-10T14:23:09.010Z,56.61
2018-11-10T14:25:40.611Z,55.89
2018-11-10T14:28:12.236Z,56.50
2018-11-10T14:30:43.695Z,56.41
2018-11-10T14:33:16.611Z,56.30
2018-11-10T14:35:48.889Z,56.67
2018-11-10T14:38:21.771Z,56.47
2018-11-10T14:40:56.416Z,56.58
2018-11-10T14:43:27.743Z,56.51
2018-11-10T14:46:00.051Z,56.09
2018-11-10T14:48:31.281Z,56.76
2018-11-10T14:51:06.035Z,56.63
2018-11-10T14:53:37.521Z,56.74
2018-11-10T14:56:09.283Z,56.83
2018-11-10T14:58:41.416Z,57.07
2018-11-10T15:01:15.012Z,57.04
2018-11-10T15:03:48.533Z,58.02
2018-11-10T15:06:21.783Z,58.07
2018-11-10T15:08:53.637Z,58.49
2018-11-10T15:11:26.930Z,58.39
2018-11-10T15:13:58.769Z,58.67
2018-11-10T15:16:30.606Z,58.97
2018-11-10T15:19:03.118Z,58.43
2018-11-10T15:21:36.472Z,59.05
2018-11-10T15:24:10.605Z,58.71
2018-11-10T15:26:41.999Z,58.98
2018-11-10T15:29:15.608Z,59.57
2018-11-10T15:31:47.175Z,59.38
2018-11-10T15:34:18.745Z,59.89
2018-11-10T15:36:50.389Z,60.10
2018-11-10T15:39:21.967Z,59.81
2018-11-10T15:41:54.608Z,59.39
2018-11-10T15:44:26.174Z,59.83
2018-11-10T15:46:57.725Z,60.21
2018-11-10T15:49:29.889Z,59.42
2018-11-10T15:52:03.376Z,59.39
2018-11-10T15:54:34.942Z,59.87
2018-11-10T15:57:08.740Z,59.69
2018-11-10T15:59:41.079Z,59.45
2018-11-10T16:02:12.780Z,59.32
2018-11-10T16:04:44.361Z,59.30
2018-11-10T16:07:15.805Z,59.60
2018-11-10T16:09:49.201Z,60.22
2018-11-10T16:12:21.465Z,60.25
2018-11-10T16:14:53.763Z,60.34
2018-11-10T16:17:25.520Z,59.67
2018-11-10T16:19:57.533Z,59.69
2018-11-10T16:22:28.887Z,59.98
2018-11-10T16:25:00.256Z,60.48
2018-11-10T16:27:32.654Z,60.70
2018-11-10T16:30:05.267Z,60.71
2018-11-10T16:32:37.005Z,60.45
2018-11-10T16:35:09.187Z,60.70
2018-11-10T16:37:40.720Z,60.53
2018-11-10T16:40:17.418Z,60.47
2018-11-10T16:42:49.848Z,60.38
2018-11-10T16:45:22.653Z,59.21
2018-11-10T16:47:54.659Z,59.61
2018-11-10T16:50:25.921Z,58.92
2018-11-10T16:53:02.713Z,59.49
2018-11-10T16:55:35.076Z,59.52
2018-11-10T16:58:06.668Z,58.77
2018-11-10T17:00:39.881Z,58.50
2018-11-10T17:03:13.263Z,59.28
2018-11-10T17:05:45.982Z,58.91
2018-11-10T17:08:22.098Z,58.99
2018-11-10T17:10:56.404Z,59.21
2018-11-10T17:13:28.285Z,59.39
2018-11-10T17:16:00.373Z,58.68
2018-11-10T17:18:32.002Z,58.70
2018-11-10T17:21:03.664Z,59.13
2018-11-10T17:23:37.265Z,59.31
2018-11-10T17:26:09.287Z,59.28
2018-11-10T17:28:41.309Z,58.80
2018-11-10T17:31:12.576Z,59.37
2018-11-10T17:33:44.688Z,58.62
2018-11-10T17:36:16.967Z,59.29
2018-11-10T17:38:48.706Z,59.04
2018-11-10T17:41:20.270Z,59.29
2018-11-10T17:43:51.945Z,59.41
2018-11-10T17:46:24.288Z,59.72
2018-11-10T17:48:57.067Z,59.82
2018-11-10T17:51:28.246Z,59.28
2018-11-10T17:54:00.174Z,59.60
2018-11-10T17:56:32.086Z,59.66
2018-11-10T17:59:04.529Z,60.01
2018-11-10T18:01:35.965Z,60.13
2018-11-10T18:04:08.251Z,60.09
2018-11-10T18:06:40.032Z,59.66
2018-11-10T18:09:14.118Z,60.00
2018-11-10T18:11:45.446Z,60.75
2018-11-10T18:14:17.124Z,60.50
2018-11-10T18:16:48.848Z,60.15
2018-11-10T18:19:20.899Z,60.19
2018-11-10T18:21:52.757Z,60.36
2018-11-10T18:24:24.898Z,59.99
2018-11-10T18:26:56.734Z,60.38
2018-11-10T18:29:28.620Z,60.50
2018-11-10T18:32:00.163Z,60.00
2018-11-10T18:34:31.748Z,60.40
2018-11-10T18:37:04.111Z,60.34
2018-11-10T18:39:35.350Z,60.54
2018-11-10T18:42:07.741Z,60.08
2018-11-10T18:44:39.514Z,60.64
2018-11-10T18:47:13.226Z,60.26
2018-11-10T18:49:45.921Z,60.46
2018-11-10T18:52:18.154Z,59.80
2018-11-10T18:54:50.855Z,59.99
2018-11-10T18:57:22.224Z,59.42
2018-11-10T18:59:53.669Z,59.04
2018-11-10T19:02:26.778Z,59.69
2018-11-10T19:04:59.688Z,59.72
2018-11-10T19:07:31.252Z,59.67
2018-11-10T19:10:03.537Z,58.86
2018-11-10T19:12:35.835Z,59.28
2018-11-10T19:15:08.609Z,59.24
2018-11-10T19:17:40.922Z,59.32
2018-11-10T19:20:12.802Z,58.67
2018-11-10T19:22:43.961Z,59.36
2018-11-10T19:25:17.467Z,59.16
2018-11-10T19:27:49.231Z,59.39
2018-11-10T19:30:21.864Z,59.30
2018-11-10T19:32:55.899Z,59.02
2018-11-10T19:35:27.333Z,59.17
2018-11-10T19:37:59.478Z,59.56
2018-11-10T19:40:32.001Z,59.55
2018-11-10T19:43:05.065Z,59.00
2018-11-10T19:45:37.833Z,59.68
2018-11-10T19:48:09.283Z,59.25
2018-11-10T19:50:41.397Z,58.94
2018-11-10T19:53:13.786Z,59.66
2018-11-10T19:55:45.780Z,59.11
2018-11-10T19:58:17.408Z,59.65
2018-11-10T20:00:48.700Z,59.59
2018-11-10T20:03:21.984Z,59.49
2018-11-10T20:05:53.628Z,59.39
2018-11-10T20:08:26.623Z,59.62
2018-11-10T20:10:58.730Z,59.44
2018-11-10T20:13:31.029Z,59.53
2018-11-10T20:16:03.589Z,59.89
2018-11-10T20:18:36.281Z,59.89
2018-11-10T20:21:09.447Z,59.89
2018-11-10T20:23:43.076Z,59.19
2018-11-10T20:26:14.264Z,60.01
2018-11-10T20:28:45.510Z,60.12
2018-11-10T20:31:17.123Z,59.83
2018-11-10T20:33:48.935Z,59.50
2018-11-10T20:36:21.033Z,59.89
2018-11-10T20:38:53.728Z,59.94
2018-11-10T20:41:24.932Z,59.66
2018-11-10T20:43:57.686Z,60.43
2018-11-10T20:46:30.545Z,60.22
2018-11-10T20:49:03.243Z,60.20
2018-11-10T20:51:34.659Z,60.19
2018-11-10T20:54:06.082Z,60.12
2018-11-10T20:56:37.880Z,60.58
2018-11-10T20:59:09.161Z,60.71
2018-11-10T21:01:42.338Z,60.91
2018-11-10T21:04:14.231Z,60.73
2018-11-10T21:06:52.600Z,60.68
2018-11-10T21:09:31.342Z,60.57
2018-11-10T21:12:02.691Z,60.85
2018-11-10T21:14:34.038Z,61.13
2018-11-10T21:17:05.539Z,61.48
2018-11-10T21:19:37.740Z,61.45
2018-11-10T21:22:14.436Z,61.00
2018-11-10T21:24:45.998Z,61.26
2018-11-10T21:27:17.912Z,61.20
2018-11-10T21:29:49.520Z,61.24
2018-11-10T21:32:23.284Z,61.07
2018-11-10T21:34:55.313Z,60.73
2018-11-10T21:37:28.662Z,61.43
2018-11-10T21:40:00.162Z,60.77
2018-11-10T21:42:33.390Z,61.13
2018-11-10T21:45:05.884Z,61.20
2018-11-10T21:47:37.902Z,61.01
2018-11-10T21:50:12.118Z,61.08
2018-11-10T21:52:44.595Z,61.41
2018-11-10T21:55:17.694Z,60.82
2018-11-10T21:57:50.929Z,61.32
2018-11-10T22:00:24.122Z,60.95
2018-11-10T22:02:56.443Z,61.60
2018-11-10T22:05:30.146Z,61.08
2018-11-10T22:08:01.953Z,61.01
2018-11-10T22:10:34.888Z,61.92
2018-11-10T22:13:07.663Z,61.59
2018-11-10T22:15:40.998Z,61.93
2018-11-10T22:18:15.795Z,61.96
2018-11-10T22:20:48.230Z,61.18
2018-11-10T22:23:20.300Z,60.83
2018-11-10T22:25:51.772Z,61.28
2018-11-10T22:28:22.941Z,60.96
2018-11-10T22:30:55.901Z,60.71
2018-11-10T22:33:29.365Z,61.10
2018-11-10T22:36:00.984Z,61.14
2018-11-10T22:38:33.057Z,60.92
2018-11-10T22:41:05.111Z,60.87
2018-11-10T22:43:37.888Z,60.86
2018-11-10T22:46:10.137Z,60.82
2018-11-10T22:48:42.018Z,61.52
2018-11-10T22:51:14.910Z,60.91
2018-11-10T22:53:46.684Z,60.94
2018-11-10T22:56:18.236Z,61.42
2018-11-10T22:58:51.549Z,61.69
2018-11-10T23:01:26.819Z,61.47
2018-11-10T23:03:58.940Z,61.13
2018-11-10T23:06:30.680Z,61.10
2018-11-10T23:09:02.879Z,61.85
2018-11-10T23:11:35.239Z,61.39
2018-11-10T23:14:07.018Z,61.77
2018-11-10T23:16:38.598Z,61.68
2018-11-10T23:19:10.301Z,61.67
2018-11-10T23:21:41.930Z,62.76
2018-11-10T23:24:14.140Z,62.37
2018-11-10T23:26:46.182Z,62.79
2018-11-10T23:29:18.406Z,62.76
2018-11-10T23:31:50.104Z,62.48
2018-11-10T23:34:22.342Z,62.38
2018-11-10T23:36:54.283Z,63.02
2018-11-10T23:39:25.951Z,62.49
2018-11-10T23:41:57.827Z,62.98
2018-11-10T23:44:30.644Z,63.14
2018-11-10T23:47:03.156Z,62.89
2018-11-10T23:49:35.923Z,62.92
2018-11-10T23:52:08.840Z,63.16
2018-11-10T23:54:40.607Z,62.76
2018-11-10T23:57:12.496Z,62.91
2018-11-10T23:59:43.655Z,62.88
